18:18
Airports
History
Links
Donate
Help keep this website running!
PayPal
Bitcoin
This page is community maintained. The information is intended for PC simulator navigation or reference.
Always use approved charts for navigation.
SSKM
Campo Mourao
Campo Mourao (SSKM)
Campo Mourão, Parana, Brazil (87310)
(C)
Lat/Lng:24° 0' 33.2" S / 52° 21' 24.42" W
-24.009222 / -52.356782
Elevation:1854'ft / 565mMSL
ID / ICAO:SSKM
Runways:1
Longest:01-19
Asphalt 1,432m / 4,699ft
Controlled:Yes
Nearby Weather17:00 GMT 2017-10-19
Nearby weather at SBMG, REGIONAL DE MARINGA SILVIO NAME JUNIOR located 42.7 nautical miles from SSKM
Altimeter: 29.94
Visibility: 6.2 statute miles
Wind: 17 knots (from 160°)
Temp: 21°c / 70°f
Humidity: 83.0%

METAR: SBMG 191700Z 16017G27KT 9999 VCSH FEW010 SCT045 FEW060TCU 21/18 Q1014 RETSRA

(Powered by phpweather)
Runway 01 / 19
Dimensions:1432.3 x 28.4m 4699' x 93'ft
Surface:Asphalt
Edge Lights:Low intensity
Runway 01 [A]Runway 19 [B]
Heading:001°TH 181°TH
Lat:
Lng:
24° 0' 56.28"S
52° 21' 25.2"W
24° 0' 10.12"S
52° 21' 23.63"W
User Notes and Comments
24° 0' 33.2" S / 52° 21' 24.42" W
Distance To
Airport ID:
Nearby Airports
(C) Cianorte 28.4 NM
SSCT NW 320°
4 Fazenda Jussara 30.2 NM
SSHL N 353°
4 Fazenda Barbacena 31.0 NM
SJBW ENE 67°
4 Fazenda Tres Minas 32.0 NM
SSMP NE 43°
4 Sao Luiz 32.6 NM
SIBO WSW 237°
4 Fazenda Yanduy 34.2 NM
SIDY E 97°
(U) REGIONAL DE MARINGA SILVIO NAME JUNIOR 42.7 NM
SBMG ( WX ) NNE 30°
VFR Chart
Flight Planning at SkyVector.com